createdAt,value
2023-04-12T00:00:51.834Z,1.04
2023-04-12T00:01:52.558Z,1.04
2023-04-12T00:02:52.257Z,1.04
2023-04-12T00:03:52.435Z,1.04
2023-04-12T00:04:52.558Z,1.04
2023-04-12T00:05:52.618Z,1.04
2023-04-12T00:06:52.725Z,1.04
2023-04-12T00:07:52.872Z,1.04
2023-04-12T00:08:53.027Z,1.04
2023-04-12T00:09:53.182Z,1.04
2023-04-12T00:10:53.360Z,1.04
2023-04-12T00:11:53.471Z,1.04
2023-04-12T00:12:53.629Z,1.04
2023-04-12T00:13:53.869Z,1.04
2023-04-12T00:14:54.448Z,1.04
2023-04-12T00:15:54.095Z,1.04
2023-04-12T00:16:54.140Z,1.04
2023-04-12T00:17:54.392Z,1.04
2023-04-12T00:18:54.428Z,1.04
2023-04-12T00:19:54.594Z,1.04
2023-04-12T00:20:54.728Z,1.04
2023-04-12T00:21:54.846Z,1.04
2023-04-12T00:22:55.002Z,1.04
2023-04-12T00:23:55.564Z,1.04
2023-04-12T00:24:55.253Z,1.04
2023-04-12T00:25:55.402Z,1.04
2023-04-12T00:26:55.500Z,1.04
2023-04-12T00:27:55.657Z,1.04
2023-04-12T00:28:55.829Z,1.04
2023-04-12T00:29:56.636Z,1.04
2023-04-12T00:30:56.126Z,1.04
2023-04-12T00:31:56.256Z,1.04
2023-04-12T00:32:56.444Z,1.04
2023-04-12T00:33:56.801Z,1.04
2023-04-12T00:34:56.712Z,1.04
2023-04-12T00:35:56.901Z,1.04
2023-04-12T00:36:57.050Z,1.04
2023-04-12T00:37:57.174Z,1.04
2023-04-12T00:38:57.326Z,1.04
2023-04-12T00:39:57.490Z,1.04
2023-04-12T00:40:57.691Z,1.04
2023-04-12T00:41:57.770Z,1.04
2023-04-12T00:42:57.947Z,1.04
2023-04-12T00:43:58.101Z,1.04
2023-04-12T00:44:58.697Z,1.04
2023-04-12T00:45:58.287Z,1.04
2023-04-12T00:46:58.424Z,1.04
2023-04-12T00:47:58.643Z,1.04
2023-04-12T00:48:58.689Z,1.04
2023-04-12T00:49:58.834Z,1.04
2023-04-12T00:50:58.995Z,1.04
2023-04-12T00:51:59.086Z,1.04
2023-04-12T00:52:59.266Z,1.04
2023-04-12T00:53:59.374Z,1.04
2023-04-12T00:54:59.506Z,1.04
2023-04-12T00:55:59.672Z,1.04
2023-04-12T00:56:59.863Z,1.04
2023-04-12T00:58:00.024Z,1.04
2023-04-12T00:59:00.165Z,1.04
2023-04-12T01:00:00.759Z,1.04
2023-04-12T01:01:00.544Z,1.04
2023-04-12T01:02:00.700Z,1.04
2023-04-12T01:03:00.966Z,1.04
2023-04-12T01:04:00.918Z,1.04
2023-04-12T01:05:00.960Z,1.04
2023-04-12T01:06:01.056Z,1.04
2023-04-12T01:07:01.242Z,1.04
2023-04-12T01:08:01.362Z,1.04
2023-04-12T01:09:01.511Z,1.04
2023-04-12T01:10:01.669Z,1.04
2023-04-12T01:11:01.808Z,1.04
2023-04-12T01:12:01.937Z,1.04
2023-04-12T01:13:02.058Z,1.04
2023-04-12T01:14:02.227Z,1.04
2023-04-12T01:15:02.861Z,1.04
2023-04-12T01:16:02.597Z,1.04
2023-04-12T01:17:02.653Z,1.04
2023-04-12T01:18:02.858Z,1.04
2023-04-12T01:19:02.930Z,1.04
2023-04-12T01:20:04.681Z,1.04
2023-04-12T01:21:03.239Z,1.04
2023-04-12T01:22:03.339Z,1.04
2023-04-12T01:23:03.484Z,1.04
2023-04-12T01:24:03.593Z,1.04
2023-04-12T01:25:03.740Z,1.04
2023-04-12T01:26:03.958Z,1.04
2023-04-12T01:27:04.036Z,1.04
2023-04-12T01:28:04.227Z,1.04
2023-04-12T01:29:04.366Z,1.04
2023-04-12T01:30:04.797Z,1.04
2023-04-12T01:31:04.965Z,1.04
2023-04-12T01:32:05.242Z,1.04
2023-04-12T01:33:05.414Z,1.04
2023-04-12T01:34:05.110Z,1.04
2023-04-12T01:35:05.266Z,1.04
2023-04-12T01:36:07.009Z,1.04
2023-04-12T01:37:05.570Z,1.04
2023-04-12T01:38:05.943Z,1.04
2023-04-12T01:39:05.866Z,1.04
2023-04-12T01:40:05.983Z,1.04
2023-04-12T01:41:06.123Z,1.04
2023-04-12T01:42:06.225Z,1.04
2023-04-12T01:43:06.374Z,1.04
2023-04-12T01:44:06.523Z,1.04
2023-04-12T01:45:07.193Z,1.04
2023-04-12T01:46:06.875Z,1.04
2023-04-12T01:47:06.982Z,1.04
2023-04-12T01:48:07.182Z,1.04
2023-04-12T01:49:07.295Z,1.04
2023-04-12T01:50:07.446Z,1.04
2023-04-12T01:51:07.593Z,1.04
2023-04-12T01:52:07.740Z,1.04
2023-04-12T01:53:07.878Z,1.04
2023-04-12T01:54:08.046Z,1.04
2023-04-12T01:55:08.190Z,1.04
2023-04-12T01:56:08.337Z,1.04
2023-04-12T01:57:08.448Z,1.04
2023-04-12T01:58:08.635Z,1.04
2023-04-12T01:59:08.733Z,1.04
2023-04-12T02:00:09.345Z,1.04
2023-04-12T02:01:09.099Z,1.04
2023-04-12T02:02:09.318Z,1.04
2023-04-12T02:03:09.439Z,1.04
2023-04-12T02:04:09.627Z,1.04
2023-04-12T02:05:09.653Z,1.04
2023-04-12T02:06:09.754Z,1.04
2023-04-12T02:07:09.911Z,1.04
2023-04-12T02:08:10.072Z,1.04
2023-04-12T02:09:10.212Z,1.04
2023-04-12T02:10:10.354Z,1.04
2023-04-12T02:11:10.541Z,1.04
2023-04-12T02:12:10.622Z,1.04
2023-04-12T02:13:10.753Z,1.04
2023-04-12T02:14:10.882Z,1.04
2023-04-12T02:15:11.010Z,1.04
2023-04-12T02:16:11.189Z,1.04
2023-04-12T02:17:11.325Z,1.04
2023-04-12T02:18:11.500Z,1.04
2023-04-12T02:19:11.632Z,1.04
2023-04-12T02:20:11.822Z,1.04
2023-04-12T02:21:11.949Z,1.04
2023-04-12T02:22:12.075Z,1.04
2023-04-12T02:23:12.240Z,1.04
2023-04-12T02:24:12.387Z,1.04
2023-04-12T02:25:12.527Z,1.04
2023-04-12T02:26:12.641Z,1.04
2023-04-12T02:27:12.793Z,1.04
2023-04-12T02:28:12.937Z,1.04
2023-04-12T02:29:13.048Z,1.04
2023-04-12T02:30:13.683Z,1.04
2023-04-12T02:31:13.406Z,1.04
2023-04-12T02:32:13.399Z,1.04
2023-04-12T02:33:13.537Z,1.04
2023-04-12T02:34:13.648Z,1.04
2023-04-12T02:35:13.816Z,1.04
2023-04-12T02:36:13.968Z,1.04
2023-04-12T02:37:14.056Z,1.04
2023-04-12T02:38:14.208Z,1.04
2023-04-12T02:39:14.358Z,1.04
2023-04-12T02:40:14.452Z,1.04
2023-04-12T02:41:14.608Z,1.04
2023-04-12T02:42:14.773Z,1.04
2023-04-12T02:43:14.920Z,1.04
2023-04-12T02:44:15.063Z,1.04
2023-04-12T02:45:15.785Z,1.04
2023-04-12T02:46:15.382Z,1.04
2023-04-12T02:47:15.491Z,1.04
2023-04-12T02:48:15.614Z,1.04
2023-04-12T02:49:15.770Z,1.04
2023-04-12T02:50:15.933Z,1.04
2023-04-12T02:51:16.076Z,1.04
2023-04-12T02:52:16.229Z,1.04
2023-04-12T02:53:16.399Z,1.04
2023-04-12T02:54:16.528Z,1.04
2023-04-12T02:55:16.666Z,1.04
2023-04-12T02:56:16.835Z,1.04
2023-04-12T02:57:16.936Z,1.04
2023-04-12T02:58:17.100Z,1.04
2023-04-12T02:59:17.234Z,1.04
2023-04-12T03:00:18.116Z,1.04
2023-04-12T03:01:17.580Z,1.04
2023-04-12T03:02:17.735Z,1.04
2023-04-12T03:03:17.999Z,1.04
2023-04-12T03:04:18.045Z,1.04
2023-04-12T03:05:18.106Z,1.04
2023-04-12T03:06:18.259Z,1.04
2023-04-12T03:07:18.391Z,1.04
2023-04-12T03:08:18.541Z,1.04
2023-04-12T03:09:18.706Z,1.04
2023-04-12T03:10:18.839Z,1.04
2023-04-12T03:11:18.998Z,1.04
2023-04-12T03:12:19.156Z,1.04
2023-04-12T03:13:19.302Z,1.04
2023-04-12T03:14:19.452Z,1.04
2023-04-12T03:15:20.194Z,1.04
2023-04-12T03:16:19.832Z,1.04
2023-04-12T03:17:19.861Z,1.04
2023-04-12T03:18:20.022Z,1.04
2023-04-12T03:19:20.155Z,1.04
2023-04-12T03:20:20.420Z,1.04
2023-04-12T03:21:20.445Z,1.04
2023-04-12T03:22:20.575Z,1.04
2023-04-12T03:23:20.704Z,1.04
2023-04-12T03:24:20.825Z,1.04
2023-04-12T03:25:20.966Z,1.04
2023-04-12T03:26:21.155Z,1.04
2023-04-12T03:27:21.275Z,1.04
2023-04-12T03:28:21.372Z,1.04
2023-04-12T03:29:21.522Z,1.04
2023-04-12T03:30:22.159Z,1.04
2023-04-12T03:31:21.803Z,1.04
2023-04-12T03:32:21.872Z,1.04
2023-04-12T03:33:21.985Z,1.04
2023-04-12T03:34:22.132Z,1.04
2023-04-12T03:35:22.340Z,1.04
2023-04-12T03:36:22.458Z,1.04
2023-04-12T03:37:22.675Z,1.04
2023-04-12T03:38:22.745Z,1.04
2023-04-12T03:39:22.888Z,1.04
2023-04-12T03:40:23.001Z,1.04
2023-04-12T03:41:23.149Z,2
2023-04-12T03:42:32.786Z,2
2023-04-12T03:43:23.394Z,2
2023-04-12T03:44:23.503Z,2
2023-04-12T03:45:24.124Z,2
2023-04-12T03:46:23.821Z,3.04
2023-04-12T03:47:23.990Z,3.04
2023-04-12T03:48:24.105Z,3.04
2023-04-12T03:49:24.211Z,4
2023-04-12T03:50:24.368Z,5.04
2023-04-12T03:51:24.501Z,5.04
2023-04-12T03:52:24.609Z,6
2023-04-12T03:53:24.776Z,7.04
2023-04-12T03:54:24.913Z,9.04
2023-04-12T03:55:25.104Z,10
2023-04-12T03:56:25.240Z,12
2023-04-12T03:57:25.317Z,14
2023-04-12T03:58:25.422Z,16
2023-04-12T03:59:25.572Z,19.04
2023-04-12T04:00:25.705Z,23.04
2023-04-12T04:01:25.814Z,27.04
2023-04-12T04:02:26.132Z,33.04
2023-04-12T04:03:26.183Z,38
2023-04-12T04:04:26.287Z,43.04
2023-04-12T04:05:26.377Z,47.04
2023-04-12T04:06:26.544Z,106
2023-04-12T04:07:26.703Z,124
2023-04-12T04:08:26.834Z,144
2023-04-12T04:09:26.998Z,166.08
2023-04-12T04:10:27.134Z,200
2023-04-12T04:11:27.306Z,230.08
2023-04-12T04:12:27.452Z,266.08
2023-04-12T04:13:27.615Z,318.08
2023-04-12T04:14:28.185Z,373.12
2023-04-12T04:15:27.877Z,426.24
2023-04-12T04:16:28.073Z,498.24
2023-04-12T04:17:28.191Z,566.08
2023-04-12T04:18:28.301Z,634.24
2023-04-12T04:19:28.409Z,709.12
2023-04-12T04:20:28.554Z,807.04
2023-04-12T04:21:28.703Z,896
2023-04-12T04:22:28.853Z,984.32
2023-04-12T04:23:29.023Z,1073.28
2023-04-12T04:24:29.185Z,1161.6
2023-04-12T04:25:29.289Z,1253.12
2023-04-12T04:26:29.407Z,1409.28
2023-04-12T04:27:29.571Z,1551.36
2023-04-12T04:28:29.719Z,1710.08
2023-04-12T04:29:30.777Z,1911.04
2023-04-12T04:30:30.042Z,2090.24
2023-04-12T04:31:30.194Z,2252.8
2023-04-12T04:32:30.274Z,2419.2
2023-04-12T04:33:30.376Z,2615.04
2023-04-12T04:34:30.545Z,2782.72
2023-04-12T04:35:30.742Z,2949.12
2023-04-12T04:36:30.832Z,3141.12
2023-04-12T04:37:31.015Z,3320.32
2023-04-12T04:38:31.140Z,3509.76
2023-04-12T04:39:31.282Z,3665.92
2023-04-12T04:40:31.445Z,3814.4
2023-04-12T04:41:31.601Z,4008.96
2023-04-12T04:42:31.749Z,4165.12
2023-04-12T04:43:31.912Z,4313.6
2023-04-12T04:44:32.589Z,4474.88
2023-04-12T04:45:32.206Z,4592.64
2023-04-12T04:46:32.350Z,4733.44
2023-04-12T04:47:32.552Z,4830.72
2023-04-12T04:48:32.607Z,4925.44
2023-04-12T04:49:32.765Z,5081.6
2023-04-12T04:50:32.904Z,5191.68
2023-04-12T04:51:33.062Z,5406.72
2023-04-12T04:52:33.208Z,5826.56
2023-04-12T04:53:33.318Z,6261.76
2023-04-12T04:54:33.407Z,6609.92
2023-04-12T04:55:33.570Z,8473.6
2023-04-12T04:56:33.659Z,10649.6
2023-04-12T04:57:33.779Z,10639.359
2023-04-12T04:58:33.920Z,10844.16
2023-04-12T04:59:34.622Z,11622.399
2023-04-12T05:00:34.220Z,10480.64
2023-04-12T05:01:34.396Z,9600
2023-04-12T05:02:34.733Z,10711.04
2023-04-12T05:03:34.615Z,12185.6
2023-04-12T05:04:34.694Z,12646.399
2023-04-12T05:05:34.840Z,11950.08
2023-04-12T05:06:34.970Z,12165.12
2023-04-12T05:07:35.132Z,12472.319
2023-04-12T05:08:35.276Z,13731.84
2023-04-12T05:09:35.432Z,13905.92
2023-04-12T05:10:35.587Z,14387.199
2023-04-12T05:11:35.683Z,15400.96
2023-04-12T05:12:35.831Z,15431.68
2023-04-12T05:13:35.986Z,16640
2023-04-12T05:14:45.792Z,19466.24
2023-04-12T05:15:36.281Z,21012.48
2023-04-12T05:16:36.414Z,22589.44
2023-04-12T05:17:36.530Z,23777.28
2023-04-12T05:18:36.641Z,23285.76
2023-04-12T05:19:36.810Z,22016
2023-04-12T05:20:36.970Z,20193.28
2023-04-12T05:21:37.095Z,17541.12
2023-04-12T05:22:37.270Z,16486.4
2023-04-12T05:23:37.450Z,16076.8
2023-04-12T05:24:37.555Z,16629.76
2023-04-12T05:25:37.697Z,17008.64
2023-04-12T05:26:38.417Z,17059.84
2023-04-12T05:27:37.968Z,17715.2
2023-04-12T05:28:38.125Z,17633.28
2023-04-12T05:29:38.757Z,16701.44
2023-04-12T05:30:38.394Z,18585.6
2023-04-12T05:31:38.531Z,20152.32
2023-04-12T05:32:39.161Z,20705.28
2023-04-12T05:34:39.482Z,21749.76
2023-04-12T05:35:39.190Z,22138.88
2023-04-12T05:36:39.239Z,22323.2
2023-04-12T05:37:39.413Z,22794.24
2023-04-12T05:38:39.539Z,23531.52
2023-04-12T05:39:39.692Z,23818.24
2023-04-12T05:40:39.844Z,23736.32
2023-04-12T05:41:39.976Z,25395.2
2023-04-12T05:42:40.089Z,25600
2023-04-12T05:43:40.185Z,26316.8
2023-04-12T05:44:40.368Z,25722.88
2023-04-12T05:45:40.827Z,24924.16
2023-04-12T05:46:41.045Z,27504.64
2023-04-12T05:47:41.101Z,26234.88
2023-04-12T05:48:40.960Z,29798.4
2023-04-12T05:49:41.105Z,25845.76
2023-04-12T05:50:41.236Z,23306.24
2023-04-12T05:51:41.935Z,24023.04
2023-04-12T05:52:41.456Z,24760.32
2023-04-12T05:53:41.562Z,25190.4
2023-04-12T05:54:41.869Z,23900.16
2023-04-12T05:55:41.802Z,21032.96
2023-04-12T05:56:41.926Z,20346.88
2023-04-12T05:57:42.051Z,21176.32
2023-04-12T05:58:42.197Z,21360.64
2023-04-12T05:59:42.814Z,21135.36
2023-04-12T06:00:42.545Z,19978.24
2023-04-12T06:01:42.742Z,20643.84
2023-04-12T06:02:43.073Z,20408.32
2023-04-12T06:03:43.064Z,21114.88
2023-04-12T06:04:50.514Z,20336.64
2023-04-12T06:05:43.393Z,22835.2
2023-04-12T06:06:43.399Z,22712.32
2023-04-12T06:07:43.528Z,22589.44
2023-04-12T06:08:43.629Z,24821.76
2023-04-12T06:09:43.780Z,23162.88
2023-04-12T06:10:43.945Z,23449.6
2023-04-12T06:11:44.089Z,26705.92
2023-04-12T06:12:44.245Z,28467.2
2023-04-12T06:13:44.383Z,28733.44
2023-04-12T06:14:45.028Z,26951.68
2023-04-12T06:15:44.659Z,27648
2023-04-12T06:16:44.786Z,27484.16
2023-04-12T06:17:44.973Z,28733.44
2023-04-12T06:18:45.107Z,29573.12
2023-04-12T06:19:45.257Z,30535.68
2023-04-12T06:20:45.419Z,31477.76
2023-04-12T06:21:45.541Z,32829.44
2023-04-12T06:22:45.706Z,33689.6
2023-04-12T06:23:45.860Z,28794.88
2023-04-12T06:24:46.044Z,32235.52
2023-04-12T06:25:46.154Z,30965.76
2023-04-12T06:26:46.259Z,32358.4
2023-04-12T06:27:46.438Z,33177.6
2023-04-12T06:28:46.562Z,34816
2023-04-12T06:29:47.190Z,34754.56
2023-04-12T06:30:46.845Z,32440.32
2023-04-12T06:31:47.085Z,32686.08
2023-04-12T06:32:47.218Z,33976.32
2023-04-12T06:33:47.313Z,35430.4
2023-04-12T06:34:47.909Z,42393.6
2023-04-12T06:35:47.662Z,44482.56
2023-04-12T06:36:47.715Z,54681.6
2023-04-12T06:37:47.877Z,53411.84
2023-04-12T06:38:48.011Z,53125.12
2023-04-12T06:39:48.178Z,54312.96
2023-04-12T06:40:48.285Z,52346.88
2023-04-12T06:41:48.418Z,57057.28
2023-04-12T06:42:48.558Z,44728.32
2023-04-12T06:43:48.687Z,45178.88
2023-04-12T06:44:49.517Z,57876.48
2023-04-12T06:45:48.986Z,43663.36
2023-04-12T06:46:49.962Z,41431.04
2023-04-12T06:47:49.346Z,38440.96
2023-04-12T06:48:49.430Z,36679.68
2023-04-12T06:49:49.522Z,35614.72
2023-04-12T06:50:49.679Z,30330.88
2023-04-12T06:51:49.826Z,30781.44
2023-04-12T06:52:49.945Z,30576.64
2023-04-12T06:53:50.035Z,35143.68
2023-04-12T06:54:50.173Z,42721.28
2023-04-12T06:55:50.288Z,44687.36
2023-04-12T06:56:50.453Z,37867.52
2023-04-12T06:57:50.574Z,34672.64
2023-04-12T06:58:50.688Z,45793.28
2023-04-12T06:59:50.834Z,47554.56
2023-04-12T07:00:51.103Z,37662.72
2023-04-12T07:01:51.194Z,35000.32
2023-04-12T07:02:51.448Z,51240.96
2023-04-12T07:03:51.559Z,54558.72
2023-04-12T07:04:51.558Z,54722.56
2023-04-12T07:05:51.663Z,56811.52
2023-04-12T07:06:51.751Z,56729.6
2023-04-12T07:07:51.918Z,63774.72
2023-04-12T07:08:52.077Z,68034.56
2023-04-12T07:09:52.206Z,52305.92
2023-04-12T07:10:52.364Z,63815.68
2023-04-12T07:11:52.517Z,66068.48
2023-04-12T07:12:52.748Z,72867.84
2023-04-12T07:13:52.798Z,77824
2023-04-12T07:14:53.451Z,66519.04
2023-04-12T07:15:53.061Z,67870.72
2023-04-12T07:16:53.275Z,67051.52
2023-04-12T07:17:53.404Z,74260.48
2023-04-12T07:18:53.485Z,78684.16
2023-04-12T07:19:53.634Z,81100.8
2023-04-12T07:20:53.770Z,82411.52
2023-04-12T07:21:54.392Z,81674.24
2023-04-12T07:22:54.002Z,72294.4
2023-04-12T07:23:54.107Z,73687.04
2023-04-12T07:24:54.243Z,77168.64
2023-04-12T07:25:54.382Z,79093.76
2023-04-12T07:26:54.543Z,80240.64
2023-04-12T07:27:54.681Z,55705.6
2023-04-12T07:28:55.095Z,70041.6
2023-04-12T07:29:55.513Z,69017.6
2023-04-12T07:30:55.143Z,79175.68
2023-04-12T07:31:55.256Z,65576.96
2023-04-12T07:32:58.454Z,77414.4
2023-04-12T07:33:55.576Z,75694.08
2023-04-12T07:34:55.657Z,78970.88
2023-04-12T07:35:55.853Z,74752
2023-04-12T07:36:55.957Z,80117.76
2023-04-12T07:37:56.105Z,82698.24
2023-04-12T07:38:56.760Z,82575.36
2023-04-12T07:39:56.464Z,81797.12
2023-04-12T07:40:56.558Z,77086.72
2023-04-12T07:41:56.716Z,80486.4
2023-04-12T07:42:56.870Z,82534.4
2023-04-12T07:43:57.034Z,82739.2
2023-04-12T07:44:57.608Z,82984.96
2023-04-12T07:45:57.353Z,82411.52
2023-04-12T07:46:57.415Z,82370.56
2023-04-12T07:47:57.624Z,83230.72
2023-04-12T07:48:57.868Z,83230.72
2023-04-12T07:49:57.878Z,83394.56
2023-04-12T07:50:58.024Z,83476.48
2023-04-12T07:51:58.134Z,83271.68
2023-04-12T07:52:58.289Z,83435.52
2023-04-12T07:53:58.736Z,83435.52
2023-04-12T07:54:58.626Z,83968
2023-04-12T07:55:59.297Z,84295.68
2023-04-12T07:56:58.891Z,84131.84
2023-04-12T07:57:59.026Z,84541.44
2023-04-12T07:58:59.403Z,84787.2
2023-04-12T07:59:59.777Z,85114.88
2023-04-12T08:01:01.178Z,85442.55
2023-04-12T08:01:59.836Z,85770.23
2023-04-12T08:02:59.761Z,86261.76
2023-04-12T08:04:00.058Z,86179.84
2023-04-12T08:04:59.942Z,86589.44
2023-04-12T08:06:00.200Z,87162.88
2023-04-12T08:07:00.188Z,87326.72
2023-04-12T08:08:00.353Z,88145.92
2023-04-12T08:09:00.513Z,88391.68
2023-04-12T08:10:00.665Z,89456.64
2023-04-12T08:11:00.762Z,89538.55
2023-04-12T08:12:00.931Z,89456.64
2023-04-12T08:13:01.038Z,90767.36
2023-04-12T08:14:01.170Z,88309.76
2023-04-12T08:15:01.802Z,84459.52
2023-04-12T08:16:01.464Z,91095.04
2023-04-12T08:17:01.476Z,90112
2023-04-12T08:18:01.702Z,88637.44
2023-04-12T08:19:01.743Z,87572.48
2023-04-12T08:20:01.866Z,84459.52
2023-04-12T08:21:02.019Z,81264.64
2023-04-12T08:22:02.168Z,81100.8
2023-04-12T08:23:02.280Z,82165.76
2023-04-12T08:24:02.454Z,82042.88
2023-04-12T08:25:02.602Z,80773.12
2023-04-12T08:26:02.819Z,78888.96
2023-04-12T08:27:02.898Z,76881.92
2023-04-12T08:28:03.050Z,76636.16
2023-04-12T08:29:03.202Z,76554.24
2023-04-12T08:30:04.407Z,75898.88
2023-04-12T08:31:03.532Z,73236.48
2023-04-12T08:32:03.597Z,71393.28
2023-04-12T08:33:03.865Z,72048.64
2023-04-12T08:34:03.907Z,72908.8
2023-04-12T08:35:04.054Z,75243.52
2023-04-12T08:36:04.243Z,73564.16
2023-04-12T08:37:04.345Z,75489.28
2023-04-12T08:38:04.506Z,74956.8
2023-04-12T08:39:04.656Z,73564.16
2023-04-12T08:40:04.797Z,74096.64
2023-04-12T08:41:04.962Z,69918.72
2023-04-12T08:42:05.095Z,67584
2023-04-12T08:43:05.251Z,68116.48
2023-04-12T08:44:05.397Z,70205.44
2023-04-12T08:45:06.135Z,72622.08
2023-04-12T08:47:05.865Z,75161.6
2023-04-12T08:48:06.381Z,72949.76
2023-04-12T08:49:06.138Z,72785.92
2023-04-12T08:50:06.257Z,69877.76
2023-04-12T08:51:06.407Z,71393.28
2023-04-12T08:52:06.574Z,70246.4
2023-04-12T08:53:06.727Z,69509.12
2023-04-12T08:54:06.884Z,69713.92
2023-04-12T08:55:07.028Z,69877.76
2023-04-12T08:56:07.164Z,68894.72
2023-04-12T08:57:07.348Z,62259.2
2023-04-12T08:58:07.525Z,59924.48
2023-04-12T08:59:07.559Z,65576.96
2023-04-12T09:00:07.734Z,66437.12
2023-04-12T09:01:07.863Z,69754.88
2023-04-12T09:02:08.336Z,72499.2
2023-04-12T09:03:08.330Z,73236.48
2023-04-12T09:04:08.493Z,69099.52
2023-04-12T09:05:08.585Z,59883.52
2023-04-12T09:06:08.553Z,67256.32
2023-04-12T09:07:08.691Z,67502.08
2023-04-12T09:08:08.841Z,61644.8
2023-04-12T09:09:08.960Z,64512
2023-04-12T09:10:09.087Z,61153.28
2023-04-12T09:11:09.257Z,56729.6
2023-04-12T09:12:09.408Z,47636.48
2023-04-12T09:13:09.551Z,54190.08
2023-04-12T09:14:09.752Z,49397.76
2023-04-12T09:15:10.402Z,51322.88
2023-04-12T09:16:10.054Z,51200
2023-04-12T09:17:10.246Z,48701.44
2023-04-12T09:18:10.294Z,48947.2
2023-04-12T09:19:10.376Z,42885.12
2023-04-12T09:20:10.544Z,38686.72
2023-04-12T09:21:10.673Z,40734.72
2023-04-12T09:22:10.813Z,50216.96
2023-04-12T09:23:10.964Z,44728.32
2023-04-12T09:24:14.148Z,41492.48
2023-04-12T09:25:11.276Z,46858.24
2023-04-12T09:26:11.438Z,49315.84
2023-04-12T09:27:11.588Z,43991.04
2023-04-12T09:28:11.722Z,41451.52
2023-04-12T09:29:11.887Z,58408.96
2023-04-12T09:30:12.567Z,59514.88
2023-04-12T09:31:12.230Z,52756.48
2023-04-12T09:32:12.348Z,57589.76
2023-04-12T09:33:12.484Z,60088.32
2023-04-12T09:34:12.636Z,65863.68
2023-04-12T09:35:12.781Z,65085.44
2023-04-12T09:36:13.007Z,63283.2
2023-04-12T09:37:13.060Z,63610.88
2023-04-12T09:38:13.154Z,60538.88
2023-04-12T09:39:13.305Z,58163.2
2023-04-12T09:40:13.479Z,47636.48
2023-04-12T09:41:13.585Z,43622.4
2023-04-12T09:42:29.614Z,42106.88
2023-04-12T09:43:13.898Z,48906.24
2023-04-12T09:44:14.054Z,46571.52
2023-04-12T09:45:14.684Z,43950.08
2023-04-12T09:46:14.385Z,41472
2023-04-12T09:47:14.524Z,41779.2
2023-04-12T09:49:14.821Z,41779.2
2023-04-12T09:50:14.967Z,45834.24
2023-04-12T09:51:15.142Z,57876.48
2023-04-12T09:52:15.318Z,62750.72
2023-04-12T09:53:15.418Z,63733.76
2023-04-12T09:54:15.569Z,62013.44
2023-04-12T09:55:15.757Z,62464
2023-04-12T09:56:15.874Z,64552.96
2023-04-12T09:57:16.017Z,44032
2023-04-12T09:58:16.152Z,43745.28
2023-04-12T09:59:16.293Z,46243.84
2023-04-12T10:00:16.916Z,50135.04
2023-04-12T10:01:17.644Z,48988.16
2023-04-12T10:02:16.772Z,56565.76
2023-04-12T10:03:16.896Z,45588.48
2023-04-12T10:04:17.229Z,44236.8
2023-04-12T10:05:17.448Z,48209.92
2023-04-12T10:06:17.248Z,26787.84
2023-04-12T10:07:17.365Z,46366.72
2023-04-12T10:08:17.559Z,50462.72
2023-04-12T10:09:17.746Z,48332.8
2023-04-12T10:10:18.215Z,48578.56
2023-04-12T10:11:17.997Z,59228.16
2023-04-12T10:12:18.145Z,59105.28
2023-04-12T10:13:18.248Z,53329.92
2023-04-12T10:14:18.399Z,38461.44
2023-04-12T10:15:19.098Z,38072.32
2023-04-12T10:16:18.773Z,35860.48
2023-04-12T10:17:18.813Z,48619.52
2023-04-12T10:18:19.099Z,34365.44
2023-04-12T10:19:19.114Z,33853.44
2023-04-12T10:20:19.196Z,37273.6
2023-04-12T10:21:19.373Z,40427.52
2023-04-12T10:22:19.508Z,44072.96
2023-04-12T10:23:19.669Z,50626.56
2023-04-12T10:24:19.808Z,61399.04
2023-04-12T10:25:19.979Z,61399.04
2023-04-12T10:26:20.131Z,58900.48
2023-04-12T10:27:20.277Z,56934.4
2023-04-12T10:28:20.444Z,51118.08
2023-04-12T10:29:20.587Z,50995.2
2023-04-12T10:30:21.178Z,51568.64
2023-04-12T10:31:20.904Z,52551.68
2023-04-12T10:32:21.112Z,44646.4
2023-04-12T10:33:21.299Z,39178.24
2023-04-12T10:34:21.353Z,39055.36
2023-04-12T10:35:21.497Z,48537.6
2023-04-12T10:36:21.663Z,61808.64
2023-04-12T10:37:21.776Z,61562.88
2023-04-12T10:38:21.903Z,30228.48
2023-04-12T10:39:21.998Z,39219.2
2023-04-12T10:40:22.124Z,56647.68
2023-04-12T10:41:22.361Z,50995.2
2023-04-12T10:42:22.480Z,54394.88
2023-04-12T10:43:22.579Z,52346.88
2023-04-12T10:44:22.737Z,45670.4
2023-04-12T10:45:23.833Z,51404.8
2023-04-12T10:46:23.021Z,50176
2023-04-12T10:47:23.218Z,50708.48
2023-04-12T10:48:23.269Z,50913.28
2023-04-12T10:49:23.392Z,50135.04
2023-04-12T10:50:23.580Z,51077.12
2023-04-12T10:51:23.745Z,50913.28
2023-04-12T10:52:23.848Z,51486.72
2023-04-12T10:53:24.014Z,51077.12
2023-04-12T10:54:24.141Z,50257.92
2023-04-12T10:55:24.300Z,49971.2
2023-04-12T10:56:24.526Z,51281.92
2023-04-12T10:57:24.623Z,48250.88
2023-04-12T10:58:24.769Z,48373.76
2023-04-12T10:59:31.380Z,46284.8
2023-04-12T11:00:25.119Z,34836.48
2023-04-12T11:01:25.338Z,35860.48
2023-04-12T11:02:25.559Z,34058.24
2023-04-12T11:03:25.470Z,28262.4
2023-04-12T11:04:25.624Z,29429.76
2023-04-12T11:05:25.743Z,28467.2
2023-04-12T11:06:27.323Z,29450.24
2023-04-12T11:07:26.020Z,31354.88
2023-04-12T11:08:26.187Z,34017.28
2023-04-12T11:09:26.345Z,35676.16
2023-04-12T11:10:26.486Z,37560.32
2023-04-12T11:11:26.645Z,39710.72
2023-04-12T11:12:26.768Z,40898.56
2023-04-12T11:13:26.950Z,40693.76
2023-04-12T11:14:27.729Z,40058.88
2023-04-12T11:15:27.271Z,42270.72
2023-04-12T11:16:27.491Z,42967.04
2023-04-12T11:17:27.709Z,39403.52
2023-04-12T11:18:27.680Z,38563.84
2023-04-12T11:19:27.819Z,36270.08
2023-04-12T11:20:27.981Z,38625.28
2023-04-12T11:21:28.118Z,42147.84
2023-04-12T11:22:28.240Z,41533.44
2023-04-12T11:23:28.364Z,40898.56
2023-04-12T11:24:28.492Z,38830.08
2023-04-12T11:25:28.711Z,38051.84
2023-04-12T11:26:28.789Z,38236.16
2023-04-12T11:27:28.955Z,37273.6
2023-04-12T11:28:31.273Z,36003.84
2023-04-12T11:29:30.466Z,34549.76
2023-04-12T11:30:29.357Z,34590.72
2023-04-12T11:31:29.534Z,35860.48
2023-04-12T11:32:29.739Z,34693.12
2023-04-12T11:33:29.910Z,38277.12
2023-04-12T11:34:30.055Z,37150.72
2023-04-12T11:35:30.146Z,36986.88
2023-04-12T11:36:30.264Z,37765.12
2023-04-12T11:37:30.400Z,36065.28
2023-04-12T11:38:30.546Z,39034.88
2023-04-12T11:39:32.070Z,40304.64
2023-04-12T11:40:30.814Z,41758.72
2023-04-12T11:41:30.951Z,40775.68
2023-04-12T11:42:31.061Z,39096.32
2023-04-12T11:43:31.219Z,39178.24
2023-04-12T11:44:38.060Z,38563.84
2023-04-12T11:45:31.480Z,38440.96
2023-04-12T11:46:31.673Z,35368.96
2023-04-12T11:47:31.800Z,33955.84
2023-04-12T11:48:31.954Z,32501.76
2023-04-12T11:49:32.109Z,32665.6
2023-04-12T11:50:32.319Z,32481.28
2023-04-12T11:51:32.695Z,32071.68
2023-04-12T11:52:32.622Z,31395.84
2023-04-12T11:53:32.649Z,31866.88
2023-04-12T11:54:32.794Z,34693.12
2023-04-12T11:55:32.954Z,35635.2
2023-04-12T11:56:33.131Z,34836.48
2023-04-12T11:57:33.259Z,37539.84
2023-04-12T11:58:33.409Z,38666.24
2023-04-12T11:59:33.985Z,32952.32
2023-04-12T12:00:33.698Z,32972.8
2023-04-12T12:01:33.865Z,31805.44
2023-04-12T12:02:41.028Z,40734.72
2023-04-12T12:03:34.269Z,32849.92
2023-04-12T12:04:34.703Z,33382.4
2023-04-12T12:05:34.542Z,33955.84
2023-04-12T12:06:34.790Z,29859.84
2023-04-12T12:07:34.924Z,31744
2023-04-12T12:08:34.806Z,29593.6
2023-04-12T12:09:34.927Z,27258.88
2023-04-12T12:10:44.106Z,27443.2
2023-04-12T12:11:35.200Z,26357.76
2023-04-12T12:12:35.361Z,26173.44
2023-04-12T12:13:35.528Z,25927.68
2023-04-12T12:14:36.116Z,26214.4
2023-04-12T12:15:35.898Z,27258.88
2023-04-12T12:16:35.973Z,28446.72
2023-04-12T12:17:36.164Z,29552.64
2023-04-12T12:18:36.222Z,29286.4
2023-04-12T12:19:36.409Z,28139.52
2023-04-12T12:20:36.532Z,27750.4
2023-04-12T12:21:36.620Z,27791.36
2023-04-12T12:22:36.736Z,28446.72
2023-04-12T12:23:36.829Z,29368.32
2023-04-12T12:24:39.873Z,29880.32
2023-04-12T12:25:37.115Z,30617.6